createdAt,value
2023-04-09T00:02:27.639Z,42.10
2023-04-09T00:07:29.337Z,42.25
2023-04-09T00:12:31.002Z,44.10
2023-04-09T00:17:32.612Z,36.83
2023-04-09T00:22:34.333Z,38.90
2023-04-09T00:27:35.931Z,41.88
2023-04-09T00:32:38.004Z,44.28
2023-04-09T00:37:39.917Z,39.92
2023-04-09T00:42:41.783Z,38.97
2023-04-09T00:47:43.693Z,42.88
2023-04-09T00:52:45.638Z,44.38
2023-04-09T00:57:49.840Z,38.92
2023-04-09T01:02:51.481Z,40.13
2023-04-09T01:08:24.227Z,34.28
2023-04-09T01:13:50.535Z,38.75
2023-04-09T01:18:59.367Z,36.10
2023-04-09T01:24:42.684Z,38.22
2023-04-09T01:29:48.273Z,38.03
2023-04-09T01:34:51.976Z,35.88
2023-04-09T01:39:53.979Z,39.70
2023-04-09T01:44:57.743Z,40.22
2023-04-09T01:49:59.991Z,45.85
2023-04-09T01:55:01.670Z,39.53
2023-04-09T02:00:04.680Z,40.50
2023-04-09T02:05:20.162Z,46.33
2023-04-09T02:10:26.420Z,38.63
2023-04-09T02:15:31.294Z,44.63
2023-04-09T02:20:32.970Z,43.53
2023-04-09T02:25:34.844Z,40.33
2023-04-09T02:30:36.469Z,51.67
2023-04-09T02:35:38.483Z,42.63
2023-04-09T02:40:40.838Z,47.47
2023-04-09T02:45:42.552Z,42.75
2023-04-09T02:50:44.193Z,43.28
2023-04-09T02:55:45.755Z,46.15
2023-04-09T03:00:47.357Z,43.78
2023-04-09T03:05:49.021Z,48.78
2023-04-09T03:10:50.656Z,46.78
2023-04-09T03:15:53.600Z,39.55
2023-04-09T03:20:55.353Z,43.42
2023-04-09T03:26:04.821Z,42.55
2023-04-09T03:31:12.793Z,49.88
2023-04-09T03:36:16.135Z,40.67
2023-04-09T03:41:38.056Z,41.20
2023-04-09T03:46:46.657Z,46.15
2023-04-09T03:51:51.990Z,43.35
2023-04-09T03:56:54.581Z,48.33
2023-04-09T04:01:59.059Z,45.72
2023-04-09T04:07:03.783Z,47.25
2023-04-09T04:12:10.214Z,36.53
2023-04-09T04:17:35.372Z,41.10
2023-04-09T04:22:39.416Z,40.22
2023-04-09T04:27:43.973Z,36.33
2023-04-09T04:32:48.294Z,40.42
2023-04-09T04:37:50.776Z,36.10
2023-04-09T04:42:52.863Z,33.35
2023-04-09T04:47:54.620Z,34.17
2023-04-09T04:52:56.399Z,32.85
2023-04-09T04:58:02.312Z,34.22
2023-04-09T05:03:12.505Z,32.05
2023-04-09T05:08:22.495Z,31.65
2023-04-09T05:13:27.445Z,26.83
2023-04-09T05:18:29.361Z,26.75
2023-04-09T05:23:30.941Z,28.80
2023-04-09T05:28:32.883Z,24.23
2023-04-09T05:33:48.929Z,25.10
2023-04-09T05:38:56.443Z,21.88
2023-04-09T05:44:00.622Z,20.65
2023-04-09T05:49:03.654Z,20.02
2023-04-09T05:54:07.078Z,19.05
2023-04-09T05:59:12.100Z,19.38
2023-04-09T06:04:14.418Z,17.90
2023-04-09T06:09:16.290Z,18.13
2023-04-09T06:14:18.599Z,17.33
2023-04-09T06:19:20.352Z,15.55
2023-04-09T06:24:22.012Z,14.68
2023-04-09T06:29:24.411Z,17.00
2023-04-09T06:34:26.137Z,14.40
2023-04-09T06:39:27.864Z,13.40
2023-04-09T06:44:30.273Z,15.32
2023-04-09T06:49:32.098Z,14.45
2023-04-09T06:54:33.742Z,12.55
2023-04-09T06:59:35.296Z,11.48
2023-04-09T07:04:37.251Z,12.10
2023-04-09T07:09:38.886Z,11.95
2023-04-09T07:14:40.565Z,14.20
2023-04-09T07:19:42.217Z,11.98
2023-04-09T07:24:43.803Z,11.38
2023-04-09T07:29:45.728Z,11.40
2023-04-09T07:34:47.679Z,12.10
2023-04-09T07:39:50.339Z,9.80
2023-04-09T07:44:52.009Z,12.13
2023-04-09T07:49:53.587Z,13.07
2023-04-09T07:54:55.617Z,10.93
2023-04-09T07:59:57.608Z,9.35
2023-04-09T08:04:59.676Z,11.93
2023-04-09T08:10:01.521Z,9.45
2023-04-09T08:15:03.253Z,10.93
2023-04-09T08:20:05.577Z,8.95
2023-04-09T08:25:07.609Z,9.93
2023-04-09T08:30:09.792Z,16.13
2023-04-09T08:35:11.762Z,9.20
2023-04-09T08:40:13.544Z,10.35
2023-04-09T08:45:19.545Z,11.70
2023-04-09T08:50:21.115Z,9.65
2023-04-09T08:55:22.810Z,10.00
2023-04-09T09:00:24.532Z,6.70
2023-04-09T09:05:55.844Z,7.60
2023-04-09T09:10:57.470Z,7.93
2023-04-09T09:16:15.332Z,8.55
2023-04-09T09:21:17.870Z,6.35
2023-04-09T09:26:24.955Z,9.30
2023-04-09T09:31:26.988Z,8.50
2023-04-09T09:36:34.045Z,9.25
2023-04-09T09:41:36.704Z,9.15
2023-04-09T09:46:40.114Z,8.52
2023-04-09T09:51:42.944Z,7.97
2023-04-09T09:56:45.279Z,5.97
2023-04-09T10:01:48.292Z,8.73
2023-04-09T10:06:53.334Z,8.40
2023-04-09T10:11:57.923Z,8.57
2023-04-09T10:17:00.010Z,8.68
2023-04-09T10:22:12.912Z,7.82
2023-04-09T10:27:17.368Z,9.30
2023-04-09T10:32:23.912Z,9.70
2023-04-09T10:37:26.786Z,9.80
2023-04-09T10:42:44.265Z,8.35
2023-04-09T10:47:50.186Z,8.98
2023-04-09T10:52:55.836Z,7.85
2023-04-09T11:03:25.657Z,7.78
2023-04-09T11:08:33.960Z,9.15
2023-04-09T11:13:35.621Z,9.13
2023-04-09T11:18:37.533Z,7.20
2023-04-09T11:23:39.150Z,8.90
2023-04-09T11:28:43.347Z,8.68
2023-04-09T11:33:47.971Z,7.63
2023-04-09T11:38:49.849Z,6.97
2023-04-09T11:43:52.102Z,9.13
2023-04-09T11:48:54.381Z,8.98
2023-04-09T11:53:56.064Z,8.13
2023-04-09T11:58:58.153Z,6.88
2023-04-09T12:04:00.776Z,7.95
2023-04-09T12:09:02.480Z,7.10
2023-04-09T12:14:07.599Z,6.00
2023-04-09T12:19:10.468Z,6.88
2023-04-09T12:24:12.169Z,6.57
2023-04-09T12:29:18.922Z,6.13
2023-04-09T12:34:20.647Z,7.18
2023-04-09T12:39:22.429Z,9.32
2023-04-09T12:44:24.105Z,7.70
2023-04-09T12:49:26.102Z,6.78
2023-04-09T12:54:27.797Z,6.15
2023-04-09T12:59:29.350Z,7.82
2023-04-09T13:04:31.150Z,7.30
2023-04-09T13:09:33.359Z,6.35
2023-04-09T13:14:35.145Z,6.15
2023-04-09T13:19:36.773Z,7.00
2023-04-09T13:24:38.711Z,7.22
2023-04-09T13:29:40.433Z,6.72
2023-04-09T13:34:42.104Z,6.65
2023-04-09T13:39:47.082Z,6.38
2023-04-09T13:44:48.772Z,6.72
2023-04-09T13:49:50.363Z,5.15
2023-04-09T13:54:51.898Z,7.00
2023-04-09T13:59:53.521Z,6.53
2023-04-09T14:04:56.056Z,5.50
2023-04-09T14:09:57.933Z,5.47
2023-04-09T14:14:59.892Z,4.57
2023-04-09T14:20:01.729Z,5.53
2023-04-09T14:25:03.658Z,8.32
2023-04-09T14:30:05.723Z,8.73
2023-04-09T14:35:07.597Z,6.50
2023-04-09T14:40:09.672Z,6.47
2023-04-09T14:45:11.697Z,5.22
2023-04-09T14:50:13.446Z,6.13
2023-04-09T14:55:15.713Z,5.72
2023-04-09T15:00:17.332Z,5.65
2023-04-09T15:05:18.960Z,5.10
2023-04-09T15:10:20.744Z,6.88
2023-04-09T15:15:22.492Z,5.50
2023-04-09T15:20:25.236Z,6.70
2023-04-09T15:25:26.757Z,4.95
2023-04-09T15:30:28.556Z,3.88
2023-04-09T15:35:30.130Z,4.82
2023-04-09T15:40:31.922Z,5.22
2023-04-09T15:45:33.645Z,4.45
2023-04-09T15:50:35.497Z,5.97
2023-04-09T15:55:37.255Z,3.78
2023-04-09T16:00:38.826Z,5.25
2023-04-09T16:05:40.605Z,4.80
2023-04-09T16:10:42.302Z,4.57
2023-04-09T16:15:43.871Z,5.05
2023-04-09T16:20:45.518Z,5.15
2023-04-09T16:25:47.202Z,4.97
2023-04-09T16:30:52.624Z,4.90
2023-04-09T16:35:54.462Z,7.28
2023-04-09T16:40:56.161Z,6.03
2023-04-09T16:45:58.886Z,4.70
2023-04-09T16:51:00.674Z,6.57
2023-04-09T16:56:03.882Z,5.68
2023-04-09T17:01:05.762Z,5.65
2023-04-09T17:06:07.625Z,6.60
2023-04-09T17:11:09.188Z,7.07
2023-04-09T17:16:10.810Z,6.82
2023-04-09T17:21:12.355Z,5.85
2023-04-09T17:26:13.949Z,7.30
2023-04-09T17:31:15.749Z,5.60
2023-04-09T17:36:18.512Z,5.63
2023-04-09T17:41:20.223Z,5.45
2023-04-09T17:46:21.888Z,7.47
2023-04-09T17:51:23.650Z,6.68
2023-04-09T17:56:25.162Z,7.53
2023-04-09T18:01:26.950Z,7.75
2023-04-09T18:06:28.624Z,5.88
2023-04-09T18:11:30.240Z,7.55
2023-04-09T18:16:31.964Z,8.05
2023-04-09T18:21:34.228Z,7.43
2023-04-09T18:26:35.845Z,6.80
2023-04-09T18:31:37.482Z,5.63
2023-04-09T18:36:39.049Z,6.40
2023-04-09T18:41:42.340Z,5.40
2023-04-09T18:46:44.013Z,7.07
2023-04-09T18:51:45.763Z,7.13
2023-04-09T18:56:47.368Z,6.80
2023-04-09T19:01:49.066Z,6.57
2023-04-09T19:06:50.931Z,6.85
2023-04-09T19:11:52.625Z,8.77
2023-04-09T19:16:54.374Z,8.38
2023-04-09T19:21:56.162Z,8.13
2023-04-09T19:26:57.674Z,7.13
2023-04-09T19:31:59.312Z,9.23
2023-04-09T19:37:00.973Z,8.40
2023-04-09T19:42:02.628Z,10.20
2023-04-09T19:47:04.166Z,8.70
2023-04-09T19:52:05.791Z,14.55
2023-04-09T19:57:07.313Z,9.98
2023-04-09T20:02:08.974Z,9.15
2023-04-09T20:07:10.604Z,9.77
2023-04-09T20:12:12.630Z,9.57
2023-04-09T20:17:14.185Z,8.45
2023-04-09T20:22:16.077Z,12.05
2023-04-09T20:27:17.748Z,10.73
2023-04-09T20:32:19.784Z,11.25
2023-04-09T20:37:21.631Z,10.35
2023-04-09T20:42:23.409Z,9.10
2023-04-09T20:47:25.028Z,11.32
2023-04-09T20:52:27.486Z,11.63
2023-04-09T20:57:29.002Z,10.30
2023-04-09T21:02:30.846Z,12.05
2023-04-09T21:07:32.554Z,11.38
2023-04-09T21:12:34.145Z,11.63
2023-04-09T21:17:35.717Z,13.38
2023-04-09T21:22:37.272Z,11.20
2023-04-09T21:27:38.822Z,10.75
2023-04-09T21:32:40.557Z,11.95
2023-04-09T21:37:42.230Z,14.43
2023-04-09T21:42:43.794Z,11.55
2023-04-09T21:47:45.454Z,11.88
2023-04-09T21:52:50.023Z,13.25
2023-04-09T21:57:51.692Z,12.98
2023-04-09T22:02:53.322Z,13.90
2023-04-09T22:07:55.807Z,13.80
2023-04-09T22:12:57.404Z,14.45
2023-04-09T22:17:59.060Z,14.43
2023-04-09T22:23:00.592Z,12.70
2023-04-09T22:28:02.386Z,13.73
2023-04-09T22:33:04.069Z,14.15
2023-04-09T22:38:05.598Z,13.18
2023-04-09T22:43:07.254Z,15.05
2023-04-09T22:48:08.806Z,15.95
2023-04-09T22:53:10.390Z,13.55
2023-04-09T22:58:12.012Z,13.23
2023-04-09T23:03:13.674Z,13.75
2023-04-09T23:08:15.241Z,15.82
2023-04-09T23:13:16.799Z,15.40
2023-04-09T23:18:18.305Z,14.07
2023-04-09T23:23:19.884Z,13.30
2023-04-09T23:28:21.389Z,15.63
2023-04-09T23:33:23.377Z,14.25
2023-04-09T23:38:24.930Z,12.23
2023-04-09T23:43:26.482Z,15.32
2023-04-09T23:48:28.016Z,16.35
2023-04-09T23:53:30.609Z,14.25
2023-04-09T23:58:32.158Z,14.57
